sensor_id;sensor_type;location;lat;lon;timestamp;pressure;altitude;pressure_sealevel;temperature;humidity
66703;BME280;60933;46.398;-63.798;2022-12-20T00:00:45;100159.84;;;0.23;98.05
66703;BME280;60933;46.398;-63.798;2022-12-20T00:03:11;100159.72;;;0.10;97.73
66703;BME280;60933;46.398;-63.798;2022-12-20T00:05:38;100161.44;;;0.10;97.65
66703;BME280;60933;46.398;-63.798;2022-12-20T00:08:05;100161.34;;;0.01;97.55
66703;BME280;60933;46.398;-63.798;2022-12-20T00:10:38;100162.16;;;-0.02;97.63
66703;BME280;60933;46.398;-63.798;2022-12-20T00:13:04;100169.69;;;-0.11;97.54
66703;BME280;60933;46.398;-63.798;2022-12-20T00:15:31;100165.34;;;-0.23;97.46
66703;BME280;60933;46.398;-63.798;2022-12-20T00:17:58;100160.22;;;-0.28;97.74
66703;BME280;60933;46.398;-63.798;2022-12-20T00:20:25;100152.56;;;-0.34;97.36
66703;BME280;60933;46.398;-63.798;2022-12-20T00:22:51;100170.31;;;-0.33;97.50
66703;BME280;60933;46.398;-63.798;2022-12-20T00:25:18;100165.22;;;-0.36;97.11
66703;BME280;60933;46.398;-63.798;2022-12-20T00:27:46;100178.69;;;-0.38;97.50
66703;BME280;60933;46.398;-63.798;2022-12-20T00:30:13;100181.22;;;-0.41;97.75
66703;BME280;60933;46.398;-63.798;2022-12-20T00:32:39;100174.41;;;-0.45;97.57
66703;BME280;60933;46.398;-63.798;2022-12-20T00:35:06;100180.34;;;-0.45;97.60
66703;BME280;60933;46.398;-63.798;2022-12-20T00:37:32;100182.03;;;-0.44;97.67
66703;BME280;60933;46.398;-63.798;2022-12-20T00:39:58;100176.94;;;-0.45;97.46
66703;BME280;60933;46.398;-63.798;2022-12-20T00:42:24;100179.47;;;-0.47;97.81
66703;BME280;60933;46.398;-63.798;2022-12-20T00:44:50;100179.44;;;-0.49;97.34
66703;BME280;60933;46.398;-63.798;2022-12-20T00:47:16;100177.69;;;-0.53;97.77
66703;BME280;60933;46.398;-63.798;2022-12-20T00:49:42;100170.91;;;-0.58;97.91
66703;BME280;60933;46.398;-63.798;2022-12-20T00:52:09;100178.50;;;-0.58;98.08
66703;BME280;60933;46.398;-63.798;2022-12-20T00:54:35;100180.16;;;-0.62;97.97
66703;BME280;60933;46.398;-63.798;2022-12-20T00:57:01;100185.25;;;-0.57;97.62
66703;BME280;60933;46.398;-63.798;2022-12-20T00:59:27;100176.81;;;-0.58;98.07
66703;BME280;60933;46.398;-63.798;2022-12-20T01:01:53;100187.78;;;-0.57;98.03
66703;BME280;60933;46.398;-63.798;2022-12-20T01:04:22;100177.63;;;-0.60;98.01
66703;BME280;60933;46.398;-63.798;2022-12-20T01:06:48;100181.09;;;-0.54;97.85
66703;BME280;60933;46.398;-63.798;2022-12-20T01:09:14;100181.94;;;-0.52;98.46
66703;BME280;60933;46.398;-63.798;2022-12-20T01:11:40;100193.84;;;-0.47;98.20
66703;BME280;60933;46.398;-63.798;2022-12-20T01:14:16;100190.47;;;-0.45;98.42
66703;BME280;60933;46.398;-63.798;2022-12-20T01:16:46;100190.50;;;-0.42;98.64
66703;BME280;60933;46.398;-63.798;2022-12-20T01:19:14;100193.06;;;-0.39;98.22
66703;BME280;60933;46.398;-63.798;2022-12-20T01:21:42;100190.56;;;-0.37;98.44
66703;BME280;60933;46.398;-63.798;2022-12-20T01:24:16;100193.06;;;-0.40;98.30
66703;BME280;60933;46.398;-63.798;2022-12-20T01:26:43;100177.81;;;-0.43;98.66
66703;BME280;60933;46.398;-63.798;2022-12-20T01:29:09;100192.19;;;-0.44;98.28
66703;BME280;60933;46.398;-63.798;2022-12-20T01:31:35;100181.16;;;-0.47;98.35
66703;BME280;60933;46.398;-63.798;2022-12-20T01:34:02;100200.56;;;-0.48;98.15
66703;BME280;60933;46.398;-63.798;2022-12-20T01:36:30;100198.03;;;-0.48;98.47
66703;BME280;60933;46.398;-63.798;2022-12-20T01:38:58;100192.13;;;-0.49;98.28
66703;BME280;60933;46.398;-63.798;2022-12-20T01:41:27;100188.72;;;-0.51;98.70
66703;BME280;60933;46.398;-63.798;2022-12-20T01:46:39;100208.16;;;-0.50;98.42
66703;BME280;60933;46.398;-63.798;2022-12-20T01:49:11;100202.28;;;-0.49;98.54
66703;BME280;60933;46.398;-63.798;2022-12-20T01:52:02;100203.09;;;-0.48;98.47
66703;BME280;60933;46.398;-63.798;2022-12-20T01:54:33;100189.53;;;-0.52;98.25
66703;BME280;60933;46.398;-63.798;2022-12-20T01:57:03;100187.84;;;-0.53;98.74
66703;BME280;60933;46.398;-63.798;2022-12-20T01:59:33;100192.91;;;-0.53;98.75
66703;BME280;60933;46.398;-63.798;2022-12-20T02:02:02;100197.13;;;-0.53;98.75
66703;BME280;60933;46.398;-63.798;2022-12-20T02:04:29;100189.50;;;-0.56;98.46
66703;BME280;60933;46.398;-63.798;2022-12-20T02:06:55;100190.38;;;-0.54;98.99
66703;BME280;60933;46.398;-63.798;2022-12-20T02:09:22;100200.50;;;-0.54;98.70
66703;BME280;60933;46.398;-63.798;2022-12-20T02:12:07;100193.72;;;-0.57;98.57
66703;BME280;60933;46.398;-63.798;2022-12-20T02:14:53;100192.00;;;-0.58;98.67
66703;BME280;60933;46.398;-63.798;2022-12-20T02:23:37;100193.72;;;-0.57;98.66
66703;BME280;60933;46.398;-63.798;2022-12-20T02:26:28;100202.16;;;-0.56;98.48
66703;BME280;60933;46.398;-63.798;2022-12-20T02:29:20;100191.19;;;-0.57;98.80
66703;BME280;60933;46.398;-63.798;2022-12-20T02:32:03;100203.03;;;-0.56;99.02
66703;BME280;60933;46.398;-63.798;2022-12-20T02:34:34;100201.41;;;-0.51;98.72
66703;BME280;60933;46.398;-63.798;2022-12-20T02:37:02;100198.88;;;-0.49;98.73
66703;BME280;60933;46.398;-63.798;2022-12-20T02:39:30;100199.75;;;-0.49;99.21
66703;BME280;60933;46.398;-63.798;2022-12-20T02:42:09;100195.63;;;-0.39;99.06
66703;BME280;60933;46.398;-63.798;2022-12-20T02:44:43;100214.25;;;-0.37;99.02
66703;BME280;60933;46.398;-63.798;2022-12-20T02:47:33;100210.03;;;-0.35;99.04
66703;BME280;60933;46.398;-63.798;2022-12-20T02:50:01;100201.56;;;-0.35;99.17
66703;BME280;60933;46.398;-63.798;2022-12-20T02:52:29;100197.38;;;-0.35;98.96
66703;BME280;60933;46.398;-63.798;2022-12-20T02:54:57;100209.22;;;-0.32;98.81
66703;BME280;60933;46.398;-63.798;2022-12-20T02:57:52;100210.06;;;-0.30;99.04
66703;BME280;60933;46.398;-63.798;2022-12-20T03:00:21;100214.31;;;-0.29;99.00
66703;BME280;60933;46.398;-63.798;2022-12-20T03:02:49;100218.53;;;-0.31;99.20
66703;BME280;60933;46.398;-63.798;2022-12-20T03:05:38;100199.84;;;-0.39;99.08
66703;BME280;60933;46.398;-63.798;2022-12-20T03:08:09;100210.94;;;-0.29;99.05
66703;BME280;60933;46.398;-63.798;2022-12-20T03:10:36;100207.53;;;-0.32;98.64
66703;BME280;60933;46.398;-63.798;2022-12-20T03:13:03;100214.31;;;-0.30;98.71
66703;BME280;60933;46.398;-63.798;2022-12-20T03:15:29;100212.59;;;-0.32;98.99
66703;BME280;60933;46.398;-63.798;2022-12-20T03:17:55;100211.78;;;-0.29;98.93
66703;BME280;60933;46.398;-63.798;2022-12-20T03:20:21;100218.56;;;-0.26;98.75
66703;BME280;60933;46.398;-63.798;2022-12-20T03:22:47;100219.44;;;-0.27;98.91
66703;BME280;60933;46.398;-63.798;2022-12-20T03:25:14;100218.56;;;-0.28;98.88
66703;BME280;60933;46.398;-63.798;2022-12-20T03:27:40;100216.78;;;-0.35;98.79
66703;BME280;60933;46.398;-63.798;2022-12-20T03:30:09;100220.22;;;-0.32;98.61
66703;BME280;60933;46.398;-63.798;2022-12-20T03:32:35;100221.06;;;-0.31;98.89
66703;BME280;60933;46.398;-63.798;2022-12-20T03:35:01;100229.47;;;-0.34;98.85
66703;BME280;60933;46.398;-63.798;2022-12-20T03:37:28;100243.84;;;-0.36;98.77
66703;BME280;60933;46.398;-63.798;2022-12-20T03:39:54;100233.66;;;-0.40;98.88
66703;BME280;60933;46.398;-63.798;2022-12-20T03:42:20;100248.88;;;-0.40;98.88
66703;BME280;60933;46.398;-63.798;2022-12-20T03:44:46;100252.22;;;-0.41;98.86
66703;BME280;60933;46.398;-63.798;2022-12-20T03:47:12;100242.03;;;-0.44;98.48
66703;BME280;60933;46.398;-63.798;2022-12-20T03:49:38;100238.59;;;-0.50;98.51
66703;BME280;60933;46.398;-63.798;2022-12-20T03:52:05;100251.34;;;-0.46;98.62
66703;BME280;60933;46.398;-63.798;2022-12-20T03:54:31;100258.91;;;-0.48;98.22
66703;BME280;60933;46.398;-63.798;2022-12-20T03:56:57;100255.50;;;-0.50;98.86
66703;BME280;60933;46.398;-63.798;2022-12-20T03:59:23;100259.72;;;-0.51;98.62
66703;BME280;60933;46.398;-63.798;2022-12-20T04:01:49;100258.88;;;-0.51;98.78
66703;BME280;60933;46.398;-63.798;2022-12-20T04:04:15;100272.38;;;-0.52;98.74
66703;BME280;60933;46.398;-63.798;2022-12-20T04:06:42;100276.63;;;-0.50;98.78
66703;BME280;60933;46.398;-63.798;2022-12-20T04:09:08;100282.53;;;-0.49;98.64
66703;BME280;60933;46.398;-63.798;2022-12-20T04:11:34;100271.56;;;-0.50;98.93
66703;BME280;60933;46.398;-63.798;2022-12-20T04:14:00;100264.78;;;-0.51;98.67
66703;BME280;60933;46.398;-63.798;2022-12-20T04:16:27;100259.69;;;-0.52;98.50
66703;BME280;60933;46.398;-63.798;2022-12-20T04:18:54;100274.09;;;-0.50;98.85
66703;BME280;60933;46.398;-63.798;2022-12-20T04:21:32;100285.94;;;-0.49;99.12
66703;BME280;60933;46.398;-63.798;2022-12-20T04:24:00;100277.44;;;-0.52;98.57
66703;BME280;60933;46.398;-63.798;2022-12-20T04:26:27;100286.75;;;-0.51;98.88
66703;BME280;60933;46.398;-63.798;2022-12-20T04:28:54;100283.34;;;-0.53;99.14
66703;BME280;60933;46.398;-63.798;2022-12-20T04:31:20;100291.84;;;-0.51;98.91
66703;BME280;60933;46.398;-63.798;2022-12-20T04:33:47;100290.13;;;-0.52;98.78
66703;BME280;60933;46.398;-63.798;2022-12-20T04:36:13;100291.00;;;-0.50;98.65
66703;BME280;60933;46.398;-63.798;2022-12-20T04:38:55;100279.16;;;-0.50;98.99
66703;BME280;60933;46.398;-63.798;2022-12-20T04:41:24;100314.72;;;-0.46;98.94
66703;BME280;60933;46.398;-63.798;2022-12-20T04:43:56;100300.34;;;-0.47;98.91
66703;BME280;60933;46.398;-63.798;2022-12-20T04:46:25;100302.00;;;-0.48;99.22
66703;BME280;60933;46.398;-63.798;2022-12-20T04:48:52;100302.88;;;-0.47;99.27
66703;BME280;60933;46.398;-63.798;2022-12-20T04:51:18;100319.75;;;-0.48;99.35
66703;BME280;60933;46.398;-63.798;2022-12-20T04:53:45;100307.94;;;-0.47;99.10
66703;BME280;60933;46.398;-63.798;2022-12-20T04:56:20;100331.63;;;-0.45;99.44
66703;BME280;60933;46.398;-63.798;2022-12-20T04:58:49;100316.44;;;-0.44;99.61
66703;BME280;60933;46.398;-63.798;2022-12-20T05:01:16;100324.06;;;-0.41;99.38
66703;BME280;60933;46.398;-63.798;2022-12-20T05:03:42;100317.41;;;-0.34;99.47
66703;BME280;60933;46.398;-63.798;2022-12-20T05:06:08;100322.53;;;-0.29;99.54
66703;BME280;60933;46.398;-63.798;2022-12-20T05:08:35;100325.97;;;-0.24;99.88
66703;BME280;60933;46.398;-63.798;2022-12-20T05:11:02;100328.59;;;-0.20;100.00
66703;BME280;60933;46.398;-63.798;2022-12-20T05:13:28;100326.09;;;-0.17;99.84
66703;BME280;60933;46.398;-63.798;2022-12-20T05:15:55;100335.44;;;-0.14;99.80
66703;BME280;60933;46.398;-63.798;2022-12-20T05:18:22;100328.66;;;-0.13;100.00
66703;BME280;60933;46.398;-63.798;2022-12-20T05:20:49;100334.66;;;-0.08;99.92
66703;BME280;60933;46.398;-63.798;2022-12-20T05:23:35;100349.09;;;-0.03;100.00
66703;BME280;60933;46.398;-63.798;2022-12-20T05:26:25;100346.66;;;0.04;100.00
66703;BME280;60933;46.398;-63.798;2022-12-20T05:28:51;100352.63;;;0.09;100.00
66703;BME280;60933;46.398;-63.798;2022-12-20T05:31:17;100345.78;;;0.05;100.00
66703;BME280;60933;46.398;-63.798;2022-12-20T05:33:44;100362.84;;;0.17;100.00
66703;BME280;60933;46.398;-63.798;2022-12-20T05:36:10;100352.78;;;0.23;100.00
66703;BME280;60933;46.398;-63.798;2022-12-20T05:38:36;100362.13;;;0.27;100.00
66703;BME280;60933;46.398;-63.798;2022-12-20T05:41:02;100360.47;;;0.30;100.00
66703;BME280;60933;46.398;-63.798;2022-12-20T05:43:30;100368.09;;;0.32;100.00
66703;BME280;60933;46.398;-63.798;2022-12-20T05:45:56;100372.34;;;0.35;100.00
66703;BME280;60933;46.398;-63.798;2022-12-20T05:48:22;100384.25;;;0.39;100.00
66703;BME280;60933;46.398;-63.798;2022-12-20T05:50:48;100386.81;;;0.40;100.00
66703;BME280;60933;46.398;-63.798;2022-12-20T05:53:15;100394.44;;;0.40;100.00
66703;BME280;60933;46.398;-63.798;2022-12-20T05:55:47;100399.56;;;0.42;100.00
66703;BME280;60933;46.398;-63.798;2022-12-20T05:58:14;100397.84;;;0.44;100.00
66703;BME280;60933;46.398;-63.798;2022-12-20T06:00:40;100416.50;;;0.44;100.00
66703;BME280;60933;46.398;-63.798;2022-12-20T06:03:08;100409.72;;;0.43;100.00
66703;BME280;60933;46.398;-63.798;2022-12-20T06:05:38;100429.19;;;0.44;100.00
66703;BME280;60933;46.398;-63.798;2022-12-20T06:08:05;100435.94;;;0.44;100.00
66703;BME280;60933;46.398;-63.798;2022-12-20T06:10:33;100441.91;;;0.47;100.00
66703;BME280;60933;46.398;-63.798;2022-12-20T06:13:03;100434.28;;;0.47;100.00
66703;BME280;60933;46.398;-63.798;2022-12-20T06:15:29;100455.50;;;0.51;100.00
66703;BME280;60933;46.398;-63.798;2022-12-20T06:17:56;100455.53;;;0.53;100.00
66703;BME280;60933;46.398;-63.798;2022-12-20T06:20:22;100447.88;;;0.50;100.00
66703;BME280;60933;46.398;-63.798;2022-12-20T06:22:48;100462.31;;;0.54;100.00
66703;BME280;60933;46.398;-63.798;2022-12-20T06:25:14;100480.94;;;0.54;100.00
66703;BME280;60933;46.398;-63.798;2022-12-20T06:27:41;100464.81;;;0.51;100.00
66703;BME280;60933;46.398;-63.798;2022-12-20T06:30:10;100478.41;;;0.56;100.00
66703;BME280;60933;46.398;-63.798;2022-12-20T06:32:37;100485.97;;;0.51;100.00
66703;BME280;60933;46.398;-63.798;2022-12-20T06:35:04;100479.22;;;0.52;100.00
66703;BME280;60933;46.398;-63.798;2022-12-20T06:37:31;100493.66;;;0.56;100.00
66703;BME280;60933;46.398;-63.798;2022-12-20T06:39:57;100515.69;;;0.57;100.00
66703;BME280;60933;46.398;-63.798;2022-12-20T06:42:23;100510.59;;;0.57;100.00
66703;BME280;60933;46.398;-63.798;2022-12-20T06:44:49;100518.28;;;0.60;100.00
66703;BME280;60933;46.398;-63.798;2022-12-20T06:47:15;100518.22;;;0.55;100.00
66703;BME280;60933;46.398;-63.798;2022-12-20T06:49:41;100517.34;;;0.55;100.00
66703;BME280;60933;46.398;-63.798;2022-12-20T06:52:07;100533.53;;;0.63;100.00
66703;BME280;60933;46.398;-63.798;2022-12-20T06:54:33;100541.16;;;0.60;100.00
66703;BME280;60933;46.398;-63.798;2022-12-20T06:57:00;100536.09;;;0.63;100.00
66703;BME280;60933;46.398;-63.798;2022-12-20T06:59:26;100526.75;;;0.60;100.00
66703;BME280;60933;46.398;-63.798;2022-12-20T07:01:52;100551.31;;;0.63;100.00
66703;BME280;60933;46.398;-63.798;2022-12-20T07:04:18;100544.53;;;0.60;100.00
66703;BME280;60933;46.398;-63.798;2022-12-20T07:06:45;100531.84;;;0.62;99.97
66703;BME280;60933;46.398;-63.798;2022-12-20T07:09:11;100540.31;;;0.61;99.92
66703;BME280;60933;46.398;-63.798;2022-12-20T07:11:37;100562.31;;;0.62;99.78
66703;BME280;60933;46.398;-63.798;2022-12-20T07:14:03;100571.66;;;0.63;99.64
66703;BME280;60933;46.398;-63.798;2022-12-20T07:16:29;100544.53;;;0.62;99.69
66703;BME280;60933;46.398;-63.798;2022-12-20T07:18:56;100553.88;;;0.63;99.70
66703;BME280;60933;46.398;-63.798;2022-12-20T07:21:22;100569.94;;;0.62;99.52
66703;BME280;60933;46.398;-63.798;2022-12-20T07:23:48;100577.59;;;0.63;99.20
66703;BME280;60933;46.398;-63.798;2022-12-20T07:26:14;100559.81;;;0.63;99.19
66703;BME280;60933;46.398;-63.798;2022-12-20T07:28:42;100570.81;;;0.61;99.08
66703;BME280;60933;46.398;-63.798;2022-12-20T07:31:10;100575.91;;;0.66;99.21
66703;BME280;60933;46.398;-63.798;2022-12-20T07:33:36;100583.53;;;0.64;98.60
66703;BME280;60933;46.398;-63.798;2022-12-20T07:36:09;100583.53;;;0.64;98.77
66703;BME280;60933;46.398;-63.798;2022-12-20T07:38:36;100576.78;;;0.65;98.41
66703;BME280;60933;46.398;-63.798;2022-12-20T07:41:10;100592.03;;;0.66;98.13
66703;BME280;60933;46.398;-63.798;2022-12-20T07:43:36;100593.69;;;0.64;98.09
66703;BME280;60933;46.398;-63.798;2022-12-20T07:46:03;100589.44;;;0.63;98.01
66703;BME280;60933;46.398;-63.798;2022-12-20T07:48:31;100600.47;;;0.65;97.81
66703;BME280;60933;46.398;-63.798;2022-12-20T07:51:02;100601.31;;;0.66;97.54
66703;BME280;60933;46.398;-63.798;2022-12-20T07:53:33;100603.03;;;0.65;97.58
66703;BME280;60933;46.398;-63.798;2022-12-20T07:56:01;100603.91;;;0.67;97.52
66703;BME280;60933;46.398;-63.798;2022-12-20T07:58:29;100601.31;;;0.66;97.92
66703;BME280;60933;46.398;-63.798;2022-12-20T08:00:56;100614.06;;;0.67;97.67
66703;BME280;60933;46.398;-63.798;2022-12-20T08:03:30;100611.53;;;0.67;97.58
66703;BME280;60933;46.398;-63.798;2022-12-20T08:05:59;100594.44;;;0.58;97.54
66703;BME280;60933;46.398;-63.798;2022-12-20T08:08:31;100619.16;;;0.67;97.38
66703;BME280;60933;46.398;-63.798;2022-12-20T08:10:58;100620.84;;;0.68;97.39
66703;BME280;60933;46.398;-63.798;2022-12-20T08:13:24;100616.56;;;0.64;97.30
66703;BME280;60933;46.398;-63.798;2022-12-20T08:15:50;100620.88;;;0.70;97.42
66703;BME280;60933;46.398;-63.798;2022-12-20T08:18:16;100638.66;;;0.70;97.50
66703;BME280;60933;46.398;-63.798;2022-12-20T08:20:42;100620.88;;;0.70;97.66
66703;BME280;60933;46.398;-63.798;2022-12-20T08:23:09;100638.66;;;0.71;97.71
66703;BME280;60933;46.398;-63.798;2022-12-20T08:25:35;100632.69;;;0.68;97.81
66703;BME280;60933;46.398;-63.798;2022-12-20T08:28:01;100648.81;;;0.68;97.59
66703;BME280;60933;46.398;-63.798;2022-12-20T08:30:28;100645.41;;;0.68;97.77
66703;BME280;60933;46.398;-63.798;2022-12-20T08:32:55;100641.97;;;0.66;97.66
66703;BME280;60933;46.398;-63.798;2022-12-20T08:35:22;100657.19;;;0.64;97.56
66703;BME280;60933;46.398;-63.798;2022-12-20T08:37:51;100669.91;;;0.66;97.71
66703;BME280;60933;46.398;-63.798;2022-12-20T08:40:18;100665.69;;;0.65;97.98
66703;BME280;60933;46.398;-63.798;2022-12-20T08:42:44;100669.06;;;0.65;97.87
66703;BME280;60933;46.398;-63.798;2022-12-20T08:45:10;100690.22;;;0.64;98.16
66703;BME280;60933;46.398;-63.798;2022-12-20T08:47:37;100676.63;;;0.62;98.53
66703;BME280;60933;46.398;-63.798;2022-12-20T08:50:03;100680.88;;;0.61;98.02
66703;BME280;60933;46.398;-63.798;2022-12-20T08:52:30;100676.63;;;0.59;98.13
66703;BME280;60933;46.398;-63.798;2022-12-20T08:54:56;100680.03;;;0.61;98.37
66703;BME280;60933;46.398;-63.798;2022-12-20T08:57:22;100696.97;;;0.62;98.50
66703;BME280;60933;46.398;-63.798;2022-12-20T08:59:48;100704.59;;;0.62;98.42
66703;BME280;60933;46.398;-63.798;2022-12-20T09:02:14;100708.84;;;0.63;98.56
66703;BME280;60933;46.398;-63.798;2022-12-20T09:04:40;100713.91;;;0.63;98.81
66703;BME280;60933;46.398;-63.798;2022-12-20T09:07:06;100696.06;;;0.58;98.40
66703;BME280;60933;46.398;-63.798;2022-12-20T09:09:32;100701.13;;;0.55;98.54
66703;BME280;60933;46.398;-63.798;2022-12-20T09:11:58;100713.00;;;0.58;98.69
66703;BME280;60933;46.398;-63.798;2022-12-20T09:14:24;100727.44;;;0.62;98.67
66703;BME280;60933;46.398;-63.798;2022-12-20T09:16:50;100739.31;;;0.63;98.60
66703;BME280;60933;46.398;-63.798;2022-12-20T09:19:16;100729.16;;;0.63;98.58
66703;BME280;60933;46.398;-63.798;2022-12-20T09:21:42;100737.59;;;0.62;98.63
66703;BME280;60933;46.398;-63.798;2022-12-20T09:24:09;100735.03;;;0.59;98.50
66703;BME280;60933;46.398;-63.798;2022-12-20T09:26:35;100727.19;;;0.46;98.21
66703;BME280;60933;46.398;-63.798;2022-12-20T09:29:02;100741.03;;;0.64;98.33
66703;BME280;60933;46.398;-63.798;2022-12-20T09:31:28;100763.06;;;0.65;98.48
66703;BME280;60933;46.398;-63.798;2022-12-20T09:33:55;100750.38;;;0.67;98.34
66703;BME280;60933;46.398;-63.798;2022-12-20T09:36:25;100757.16;;;0.66;98.30
66703;BME280;60933;46.398;-63.798;2022-12-20T09:38:53;100771.59;;;0.67;98.16
66703;BME280;60933;46.398;-63.798;2022-12-20T09:41:40;100764.78;;;0.66;98.27
66703;BME280;60933;46.398;-63.798;2022-12-20T09:44:15;100769.00;;;0.64;98.06
66703;BME280;60933;46.398;-63.798;2022-12-20T09:46:43;100780.06;;;0.69;97.79
66703;BME280;60933;46.398;-63.798;2022-12-20T09:49:15;100762.00;;;0.51;97.97
66703;BME280;60933;46.398;-63.798;2022-12-20T09:52:04;100791.03;;;0.67;98.20
66703;BME280;60933;46.398;-63.798;2022-12-20T10:00:18;100812.16;;;0.62;98.41
66703;BME280;60933;46.398;-63.798;2022-12-20T10:02:45;100816.34;;;0.60;98.22
66703;BME280;60933;46.398;-63.798;2022-12-20T10:05:21;100826.50;;;0.59;98.39
66703;BME280;60933;46.398;-63.798;2022-12-20T10:10:45;100828.13;;;0.55;98.40
66703;BME280;60933;46.398;-63.798;2022-12-20T10:13:48;100838.22;;;0.52;98.48
66703;BME280;60933;46.398;-63.798;2022-12-20T10:16:42;100840.75;;;0.51;98.80
66703;BME280;60933;46.398;-63.798;2022-12-20T10:22:29;100850.94;;;0.54;98.71
66703;BME280;60933;46.398;-63.798;2022-12-20T10:25:15;100846.66;;;0.51;98.82
66703;BME280;60933;46.398;-63.798;2022-12-20T10:27:43;100856.88;;;0.53;98.87
66703;BME280;60933;46.398;-63.798;2022-12-20T10:30:15;100862.78;;;0.52;98.88
66703;BME280;60933;46.398;-63.798;2022-12-20T10:32:45;100869.53;;;0.51;99.08
66703;BME280;60933;46.398;-63.798;2022-12-20T10:38:09;100870.44;;;0.55;99.08
66703;BME280;60933;46.398;-63.798;2022-12-20T10:40:46;100874.69;;;0.56;99.29
66703;BME280;60933;46.398;-63.798;2022-12-20T10:43:20;100866.06;;;0.47;99.28
66703;BME280;60933;46.398;-63.798;2022-12-20T10:46:06;100888.28;;;0.58;99.62
66703;BME280;60933;46.398;-63.798;2022-12-20T10:48:35;100895.09;;;0.59;99.16
66703;BME280;60933;46.398;-63.798;2022-12-20T10:53:58;100901.00;;;0.59;99.46
66703;BME280;60933;46.398;-63.798;2022-12-20T10:56:32;100911.25;;;0.62;99.05
66703;BME280;60933;46.398;-63.798;2022-12-20T10:59:26;100912.13;;;0.65;99.08
66703;BME280;60933;46.398;-63.798;2022-12-20T11:01:48;100922.25;;;0.63;99.04
66703;BME280;60933;46.398;-63.798;2022-12-20T11:04:33;100946.84;;;0.64;98.90
66703;BME280;60933;46.398;-63.798;2022-12-20T11:07:02;100929.91;;;0.65;99.22
66703;BME280;60933;46.398;-63.798;2022-12-20T11:09:32;100931.56;;;0.61;99.32
66703;BME280;60933;46.398;-63.798;2022-12-20T11:14:24;100952.00;;;0.67;98.84
66703;BME280;60933;46.398;-63.798;2022-12-20T11:16:54;100947.66;;;0.63;99.29
66703;BME280;60933;46.398;-63.798;2022-12-20T11:19:46;100961.31;;;0.68;99.05
66703;BME280;60933;46.398;-63.798;2022-12-20T11:27:49;100983.34;;;0.69;98.86
66703;BME280;60933;46.398;-63.798;2022-12-20T11:30:22;100976.50;;;0.65;98.98
66703;BME280;60933;46.398;-63.798;2022-12-20T11:33:14;100997.75;;;0.70;98.64
66703;BME280;60933;46.398;-63.798;2022-12-20T11:35:55;100991.00;;;0.71;98.71
66703;BME280;60933;46.398;-63.798;2022-12-20T11:58:25;101057.31;;;0.82;97.88
66703;BME280;60933;46.398;-63.798;2022-12-20T12:00:56;101047.88;;;0.77;97.91
66703;BME280;60933;46.398;-63.798;2022-12-20T12:03:33;101102.22;;;0.83;97.78
66703;BME280;60933;46.398;-63.798;2022-12-20T12:06:04;101080.19;;;0.83;97.45
66703;BME280;60933;46.398;-63.798;2022-12-20T12:08:49;101084.44;;;0.83;97.38
66703;BME280;60933;46.398;-63.798;2022-12-20T12:11:25;101096.31;;;0.84;97.85
66703;BME280;60933;46.398;-63.798;2022-12-20T12:13:54;101112.44;;;0.86;97.80
66703;BME280;60933;46.398;-63.798;2022-12-20T12:16:28;101109.84;;;0.83;97.78
66703;BME280;60933;46.398;-63.798;2022-12-20T12:18:59;101119.13;;;0.81;97.48
66703;BME280;60933;46.398;-63.798;2022-12-20T12:21:32;101124.28;;;0.84;97.37
66703;BME280;60933;46.398;-63.798;2022-12-20T12:24:18;101135.28;;;0.84;97.61
66703;BME280;60933;46.398;-63.798;2022-12-20T12:26:48;101144.63;;;0.84;97.88
66703;BME280;60933;46.398;-63.798;2022-12-20T12:29:15;101141.97;;;0.79;97.61
66703;BME280;60933;46.398;-63.798;2022-12-20T12:31:59;101149.69;;;0.84;97.71
66703;BME280;60933;46.398;-63.798;2022-12-20T12:45:42;101176.84;;;0.86;97.30
66703;BME280;60933;46.398;-63.798;2022-12-20T12:48:34;101175.16;;;0.87;97.29
66703;BME280;60933;46.398;-63.798;2022-12-20T12:51:05;101189.56;;;0.86;97.48
66703;BME280;60933;46.398;-63.798;2022-12-20T12:53:35;101197.19;;;0.86;97.12
66703;BME280;60933;46.398;-63.798;2022-12-20T13:09:20;101231.09;;;0.87;97.84
66703;BME280;60933;46.398;-63.798;2022-12-20T13:11:47;101228.44;;;0.82;97.62
66703;BME280;60933;46.398;-63.798;2022-12-20T13:16:47;101246.28;;;0.84;97.99
66703;BME280;60933;46.398;-63.798;2022-12-20T13:27:40;101253.16;;;0.89;98.29
66703;BME280;60933;46.398;-63.798;2022-12-20T13:38:02;101266.63;;;0.84;98.67
66703;BME280;60933;46.398;-63.798;2022-12-20T13:43:51;101281.00;;;0.85;98.41
66703;BME280;60933;46.398;-63.798;2022-12-20T13:46:30;101274.25;;;0.84;98.67
66703;BME280;60933;46.398;-63.798;2022-12-20T13:49:04;101279.38;;;0.87;98.78
66703;BME280;60933;46.398;-63.798;2022-12-20T13:51:35;101285.38;;;0.89;98.76
66703;BME280;60933;46.398;-63.798;2022-12-20T13:54:06;101276.78;;;0.84;99.08
66703;BME280;60933;46.398;-63.798;2022-12-20T13:56:44;101289.63;;;0.90;99.04
66703;BME280;60933;46.398;-63.798;2022-12-20T13:59:16;101269.41;;;0.94;99.02
66703;BME280;60933;46.398;-63.798;2022-12-20T14:01:53;101292.31;;;0.96;99.04
66703;BME280;60933;46.398;-63.798;2022-12-20T14:04:20;101293.22;;;0.98;99.11
66703;BME280;60933;46.398;-63.798;2022-12-20T14:06:52;101301.72;;;1.00;98.96
66703;BME280;60933;46.398;-63.798;2022-12-20T14:09:37;101307.72;;;1.04;99.00
66703;BME280;60933;46.398;-63.798;2022-12-20T14:14:45;101308.63;;;1.06;98.82
66703;BME280;60933;46.398;-63.798;2022-12-20T14:17:29;101308.72;;;1.09;98.97
66703;BME280;60933;46.398;-63.798;2022-12-20T14:20:14;101307.94;;;1.12;98.74
66703;BME280;60933;46.398;-63.798;2022-12-20T14:27:57;101329.16;;;1.14;98.75
66703;BME280;60933;46.398;-63.798;2022-12-20T14:32:55;101343.63;;;1.15;98.61
66703;BME280;60933;46.398;-63.798;2022-12-20T14:35:22;101336.84;;;1.17;98.41
66703;BME280;60933;46.398;-63.798;2022-12-20T14:37:53;101346.22;;;1.19;98.32
66703;BME280;60933;46.398;-63.798;2022-12-20T14:40:20;101333.50;;;1.18;98.17